RJOB

Details ICAO RJOB (OKJ)
Name OKAYAMA
Region Japan
Timezone Asia/Tokyo (UTC+9.0)
Plans Departing 19
Arriving 18
Stats Elevation 806 ft / 246 m (AMSL)
Location 34.756937° 133.855435°
Runways 1
Magnetic Variation 7.763° W
Sunrise 2017-12-12 22:04:24 UTC / 2017-12-13 07:04:24 Local
Sunset 2017-12-13 07:55:39 UTC / 2017-12-13 16:55:39 Local
Advertisement - Login to hide

Runways

ID Width Length Bearing (true) Bearing (mag) Surface Threshold Offset Overrun Length
07 150 ft / 46 m 9,835 ft / 2,998 m 59.10° 66.86° Asphalt 0 ft / 0 m 200 ft / 61 m
25 150 ft / 46 m 9,835 ft / 2,998 m 239.12° 246.88° Asphalt 0 ft / 0 m 200 ft / 61 m

Approach Navaids

Runway Type Ident Frequency Range Bearing (true) Bearing (mag) Slope Elevation
07 Localiser IOY 110.30 MHz 18 nm / 33 km 59.12° 66.89° - 806 ft / 246 m (AMSL)
07 Glidescope IOY 110.30 MHz 10 nm / 19 km 59.11° 66.87° 3.00° 806 ft / 246 m (AMSL)

Map

Weather


0- 5 10 15 20 25 30 35+ Temperature / ° C

Clouds and Precipitation
Forecast for 2017-12-13 00:00 UTC. Updated 36 minutes ago

Ground ~20,000 ft ~40,000 ft Winds

METAR

RJOB 122115Z 25005KT 9999 FEW025 M03/M05 Q1021 RMK 1CU025 A3016

TAF

TAF RJOB 121706Z 1218/1400 28010KT 9999 FEW025 BKN035

Frequencies

Tower 126.20 MHz TWR
Approach 120.40 MHz TAKAMATSU APP
Tower 124.30 MHz TWR
Approach 121.20 MHz TAKAMATSU APP
Warning: Do not use this data for real-world aviation or navigation. No guarantee of current accuracy is given.